Flight Track Log - Related Links

Times and Time Zones

All times are in EDT time to prevent confusion due to time zone crossing. See the EJA695P flight status page for this flight to view local times or setup timezone preferences in your user account.


Time Position Orientation Groundspeed Altitude Reporting Facility
EDT Latitude Longitude Course Direction KTS MPH feet Rate Location/Type
Mon 02:34:40 PM 41.9306 -88.2531 263° West 185 213 2,200  Level Chicago Center
Mon 02:35:39 PM 41.9247 -88.3144 290° West 203 234 4,300 2,450 Climbing Chicago Center
Mon 02:36:40 PM 41.9483 -88.4033 291° West 237 273 7,100 3,100 Climbing Chicago Center
Mon 02:37:39 PM 41.9742 -88.4953 291° West 250 288 10,500 2,571 Climbing Chicago Center
Mon 02:38:39 PM 42.0019 -88.5928 291° West 264 304 12,200 2,033 Climbing Chicago Center
Mon 02:39:40 PM 42.0339 -88.7069 291° West 299 344 14,600 2,500 Climbing Chicago Center
Mon 02:40:39 PM 42.0636 -88.8128 296° West 309 356 17,200 2,400 Climbing Chicago Center
Mon 02:41:40 PM 42.0975 -88.9050 295° West 309 356 19,400 2,132 Climbing Chicago Center
Mon 02:42:40 PM 42.1353 -89.0167 290° West 322 371 21,500 1,815 Climbing Chicago Center
Mon 02:43:39 PM 42.1669 -89.1314 283° West 322 371 23,000 1,160 Climbing Chicago Center
Mon 02:44:39 PM 42.1878 -89.2575 283° West 334 384 23,800 1,240 Climbing Chicago Center
Mon 02:45:40 PM 42.2086 -89.3750 283° West 331 381 25,500 1,488 Climbing Chicago Center
Mon 02:46:40 PM 42.2294 -89.4928 286° West 325 374 26,800 1,210 Climbing Chicago Center
Mon 02:47:39 PM 42.2544 -89.6081 284° West 325 374 27,900 1,200 Climbing Chicago Center
Mon 02:48:40 PM 42.2769 -89.7344 289° West 334 384 29,200 1,488 Climbing Chicago Center
Mon 02:49:40 PM 42.3097 -89.8664 289° West 339 390 30,900 1,700 Climbing Chicago Center
Mon 02:50:40 PM 42.3364 -89.9706 282° West 339 390 32,600 1,600 Climbing Chicago Center
Mon 02:51:40 PM 42.3544 -90.0831 280° West 327 376 34,100 1,450 Climbing Chicago Center
Mon 02:52:40 PM 42.3703 -90.2014 274° West 321 369 35,500 1,300 Climbing Chicago Center
Mon 02:53:40 PM 42.3756 -90.3194 271° West 316 364 36,700 1,350 Climbing Chicago Center
Mon 02:54:40 PM 42.3767 -90.4347 275° West 311 358 38,200 1,250 Climbing Chicago Center
Mon 02:55:40 PM 42.3839 -90.5500 275° West 311 358 39,200 850 Climbing Chicago Center
Mon 02:56:40 PM 42.3908 -90.6683 273° West 311 358 39,900 400 Climbing Chicago Center
Mon 02:57:40 PM 42.3956 -90.7950 273° West 317 365 40,000 50 Climbing Chicago Center
Mon 02:58:40 PM 42.4003 -90.9217 272° West 338 389 40,000  Level Chicago Center
Mon 02:59:39 PM 42.4044 -91.0567 274° West 350 403 40,000  Level Chicago Center
Mon 03:00:40 PM 42.4108 -91.1892 272° West 355 409 40,000  Level Chicago Center
Mon 03:01:40 PM 42.4150 -91.3242 273° West 361 415 40,000  Level Chicago Center
Mon 03:02:40 PM 42.4208 -91.4650 273° West 368 423 40,000  Level Chicago Center
Mon 03:03:40 PM 42.4264 -91.6031 273° West 368 423 40,000  Level Chicago Center
Mon 03:04:40 PM 42.4319 -91.7467 272° West 368 423 40,000  Level Chicago Center
Mon 03:05:40 PM 42.4353 -91.8847 273° West 368 423 40,000  Level Chicago Center
Mon 03:06:40 PM 42.4403 -92.0256 272° West 368 423 40,000  Level Chicago Center
Mon 03:07:40 PM 42.4433 -92.1664 273° West 368 423 40,000  Level Chicago Center
Mon 03:08:39 PM 42.4481 -92.3075 271° West 374 430 40,000  Level Chicago Center
Mon 03:09:40 PM 42.4506 -92.4453 274° West 374 430 40,000  Level Chicago Center
Mon 03:10:40 PM 42.4572 -92.5864 272° West 374 430 40,000  Level Chicago Center
Mon 03:12:30 PM 42.4639 -92.8597 272° West 361 415 40,000  Level Minneapolis Center
Mon 03:42:30 PM 42.4994 -97.0650 269° West 386 444 40,000  Level Minneapolis Center
Mon 03:48:30 PM 42.4892 -97.9117 269° West 381 438 40,000  Level Minneapolis Center
Mon 03:49:30 PM 42.4872 -98.0578 269° West 381 438 40,000  Level Minneapolis Center
Mon 03:50:30 PM 42.4856 -98.1983 268° West 381 438 40,000  Level Minneapolis Center
Mon 03:51:30 PM 42.4814 -98.3414 268° West 381 438 40,000  Level Minneapolis Center
Mon 03:52:30 PM 42.4769 -98.4847 269° West 381 438 40,000  Level Minneapolis Center
Mon 03:53:30 PM 42.4747 -98.6225 246° West 381 438 40,000  Level Minneapolis Center
Mon 03:55:42 PM 42.3828 -98.9017 244° Southwest 366 421 40,000  Level Denver Center
Mon 03:56:42 PM 42.3369 -99.0308 244° Southwest 381 438 40,000  Level Denver Center
Mon 03:57:42 PM 42.2906 -99.1569 244° Southwest 387 445 40,000  Level Denver Center
Mon 03:58:42 PM 42.2444 -99.2858 243° Southwest 387 445 40,000  Level Denver Center
Mon 03:59:42 PM 42.1961 -99.4147 243° Southwest 382 440 40,000  Level Denver Center
Mon 04:00:42 PM 42.1494 -99.5403 244° Southwest 382 440 40,000  Level Denver Center
Mon 04:01:42 PM 42.1028 -99.6686 243° Southwest 382 440 40,000  Level Denver Center
Mon 04:02:42 PM 42.0464 -99.8144 242° Southwest 396 456 40,000  Level Denver Center
Mon 04:03:42 PM 41.9972 -99.9400 243° Southwest 396 456 40,000  Level Denver Center
Mon 04:04:42 PM 41.9536 -100.0561 244° Southwest 391 450 40,000  Level Denver Center
Mon 04:05:42 PM 41.9067 -100.1864 242° Southwest 391 450 40,000  Level Denver Center
Mon 04:06:42 PM 41.8514 -100.3256 243° Southwest 391 450 40,000  Level Denver Center
Mon 04:07:42 PM 41.8019 -100.4531 243° Southwest 391 450 40,000  Level Denver Center
Mon 04:08:42 PM 41.7558 -100.5742 243° Southwest 401 461 40,000  Level Denver Center
Mon 04:09:42 PM 41.7025 -100.7156 241° Southwest 401 461 40,000  Level Denver Center
Mon 04:10:42 PM 41.6503 -100.8425 243° Southwest 401 461 40,000  Level Denver Center
Mon 04:11:42 PM 41.6022 -100.9661 243° Southwest 396 456 40,000  Level Denver Center
Mon 04:12:42 PM 41.5575 -101.0836 241° Southwest 396 456 40,000  Level Denver Center
Mon 04:13:42 PM 41.5014 -101.2214 243° Southwest 391 450 40,000  Level Denver Center
Mon 04:14:42 PM 41.4528 -101.3472 242° Southwest 385 443 40,000  Level Denver Center
Mon 04:15:42 PM 41.4078 -101.4617 243° Southwest 385 443 40,000  Level Denver Center
Mon 04:16:42 PM 41.3589 -101.5872 241° Southwest 385 443 40,000  Level Denver Center
Mon 04:17:42 PM 41.3000 -101.7269 243° Southwest 385 443 40,000  Level Denver Center
Mon 04:18:42 PM 41.2508 -101.8550 241° Southwest 385 443 40,000  Level Denver Center
Mon 04:19:42 PM 41.2053 -101.9658 243° Southwest 385 443 40,000  Level Denver Center
Mon 04:20:42 PM 41.1503 -102.1075 241° Southwest 385 443 40,000  Level Denver Center
Mon 04:21:42 PM 41.0967 -102.2350 240° Southwest 390 449 40,000 -250 Level Denver Center
Mon 04:22:42 PM 41.0428 -102.3597 241° Southwest 390 449 39,500 -750 Descending Denver Center
Mon 04:23:42 PM 40.9947 -102.4756 243° Southwest 396 456 38,500 -750 Descending Denver Center
Mon 04:24:42 PM 40.9408 -102.6164 240° Southwest 396 456 38,000 -250 Descending Denver Center
Mon 04:25:42 PM 40.8867 -102.7403 241° Southwest 396 456 38,000  Level Denver Center
Mon 04:26:42 PM 40.8361 -102.8583 246° West 407 468 38,000 -1,000 Level Denver Center
Mon 04:27:42 PM 40.7864 -103.0064 240° Southwest 407 468 36,000 -2,200 Descending Denver Center
Mon 04:28:42 PM 40.7356 -103.1217 241° Southwest 407 468 33,600 -2,600 Descending Denver Center
Mon 04:29:42 PM 40.6808 -103.2503 243° Southwest 407 468 30,800 -2,800 Descending Denver Center
Mon 04:30:42 PM 40.6303 -103.3814 240° Southwest 407 468 28,000 -2,750 Descending Denver Center
Mon 04:31:42 PM 40.5733 -103.5125 239° Southwest 412 474 25,300 -2,650 Descending Denver Center
Mon 04:32:42 PM 40.5158 -103.6378 241° Southwest 410 472 22,700 -2,500 Descending Denver Center
Mon 04:33:42 PM 40.4647 -103.7603 240° Southwest 399 459 20,300 -2,300 Descending Denver Center
Mon 04:34:42 PM 40.4172 -103.8686 242° Southwest 368 423 18,100 -2,100 Descending Denver Center
Mon 04:35:42 PM 40.3717 -103.9794 229° Southwest 340 391 16,100 -1,500 Descending Denver Center
Mon 04:36:42 PM 40.3150 -104.0658 234° Southwest 316 364 15,100 -500 Descending Denver Center
Mon 04:37:42 PM 40.2586 -104.1658 250° West 329 379 15,100  Level Denver Center
Mon 04:38:42 PM 40.2256 -104.2867 249° West 342 394 15,100  Level Denver Center
Mon 04:39:42 PM 40.1942 -104.3964 248° West 336 387 15,100  Level Denver Center
Mon 04:40:42 PM 40.1608 -104.5033 249° West 330 380 15,100 -750 Level Denver Center
Mon 04:41:42 PM 40.1292 -104.6128 251° West 330 380 13,600 -1,000 Descending Denver Center
Mon 04:42:42 PM 40.0997 -104.7222 250° West 325 374 13,100 -450 Descending Denver Center
Mon 04:43:42 PM 40.0719 -104.8233 250° West 316 364 12,700 -800 Descending Denver Center
Mon 04:44:42 PM 40.0442 -104.9244 250° West 301 346 11,500 -1,200 Descending Denver Center
Mon 04:45:42 PM 40.0203 -105.0092 258° West 274 315 10,300 -1,304 Descending Denver Center
Mon 04:47:46 PM 40.0000 -105.1333 247° West 155 178 7,500 -944 Descending Denver TRACON
Mon 04:48:40 PM 39.9833 -105.1833 180° South 166 191 7,500 -421 Level Denver TRACON
Mon 04:49:40 PM 39.9500 -105.1833 131° Southeast 164 189 6,700 -800 Descending Denver TRACON
Mon 04:50:40 PM 39.9167 -105.1333 131° Southeast 139 160 5,900 -800 Descending Denver TRACON

Login

Don't have an account? Register now (free) for customized features, flight alerts, and more!